createdAt,value
2017-08-20T00:00:07.090Z,7.00
2017-08-20T00:01:07.070Z,6.10
2017-08-20T00:02:07.046Z,7.10
2017-08-20T00:03:07.025Z,6.40
2017-08-20T00:04:07.004Z,8.80
2017-08-20T00:05:06.982Z,7.90
2017-08-20T00:06:06.960Z,8.70
2017-08-20T00:07:06.942Z,6.80
2017-08-20T00:08:06.917Z,8.40
2017-08-20T00:09:06.897Z,7.40
2017-08-20T00:10:06.876Z,5.90
2017-08-20T00:11:06.854Z,10.40
2017-08-20T00:12:06.834Z,5.90
2017-08-20T00:13:06.810Z,5.80
2017-08-20T00:14:06.790Z,6.60
2017-08-20T00:15:06.769Z,8.50
2017-08-20T00:16:06.757Z,7.50
2017-08-20T00:17:06.724Z,5.80
2017-08-20T00:18:06.705Z,6.70
2017-08-20T00:19:06.683Z,6.50
2017-08-20T00:20:06.661Z,6.50
2017-08-20T00:21:06.648Z,7.30
2017-08-20T00:22:06.619Z,8.00
2017-08-20T00:23:06.596Z,5.90
2017-08-20T00:24:06.574Z,6.30
2017-08-20T00:25:06.554Z,5.20
2017-08-20T00:26:06.532Z,7.00
2017-08-20T00:27:06.511Z,8.00
2017-08-20T00:28:06.490Z,6.90
2017-08-20T00:29:06.467Z,5.40
2017-08-20T00:30:06.448Z,5.70
2017-08-20T00:31:06.426Z,6.30
2017-08-20T00:32:06.404Z,7.00
2017-08-20T00:33:06.384Z,6.50
2017-08-20T00:34:06.361Z,6.20
2017-08-20T00:35:06.339Z,5.90
2017-08-20T00:36:06.319Z,6.30
2017-08-20T00:37:06.297Z,5.80
2017-08-20T00:38:06.277Z,4.90
2017-08-20T00:39:06.254Z,6.00
2017-08-20T00:40:06.233Z,6.50
2017-08-20T00:41:06.211Z,8.80
2017-08-20T00:42:06.190Z,4.50
2017-08-20T00:43:06.169Z,6.30
2017-08-20T00:44:06.145Z,7.20
2017-08-20T00:45:06.126Z,4.50
2017-08-20T00:46:06.103Z,5.80
2017-08-20T00:47:06.082Z,6.10
2017-08-20T00:48:06.060Z,6.30
2017-08-20T00:49:06.039Z,4.30
2017-08-20T00:50:06.020Z,6.30
2017-08-20T00:51:05.998Z,5.70
2017-08-20T00:52:05.976Z,4.70
2017-08-20T00:53:05.953Z,7.70
2017-08-20T00:54:05.934Z,5.50
2017-08-20T00:55:05.912Z,6.20
2017-08-20T00:56:05.889Z,4.80
2017-08-20T00:57:05.869Z,6.40
2017-08-20T00:58:05.847Z,4.20
2017-08-20T00:59:05.826Z,5.30
2017-08-20T01:00:05.804Z,5.50
2017-08-20T01:01:05.782Z,7.10
2017-08-20T01:02:05.761Z,4.60
2017-08-20T01:03:05.740Z,4.30
2017-08-20T01:04:05.717Z,6.30
2017-08-20T01:05:05.696Z,3.80
2017-08-20T01:06:05.676Z,6.60
2017-08-20T01:07:05.655Z,6.80
2017-08-20T01:08:05.634Z,5.80
2017-08-20T01:09:05.611Z,6.30
2017-08-20T01:10:05.592Z,5.50
2017-08-20T01:11:05.569Z,6.00
2017-08-20T01:12:05.548Z,9.00
2017-08-20T01:13:05.526Z,5.50
2017-08-20T01:14:05.505Z,5.40
2017-08-20T01:15:05.484Z,4.40
2017-08-20T01:16:05.463Z,4.20
2017-08-20T01:17:05.444Z,3.90
2017-08-20T01:18:05.421Z,4.40
2017-08-20T01:19:05.399Z,4.80
2017-08-20T01:20:05.377Z,6.30
2017-08-20T01:21:05.359Z,5.10
2017-08-20T01:22:05.335Z,5.40
2017-08-20T01:23:05.313Z,5.50
2017-08-20T01:24:05.291Z,4.70
2017-08-20T01:25:05.270Z,4.60
2017-08-20T01:26:05.249Z,3.60
2017-08-20T01:27:05.229Z,4.80
2017-08-20T01:28:05.206Z,5.00
2017-08-20T01:29:05.185Z,4.40
2017-08-20T01:30:05.163Z,4.60
2017-08-20T01:31:05.141Z,6.40
2017-08-20T01:32:05.120Z,3.40
2017-08-20T01:33:05.101Z,5.30
2017-08-20T01:34:05.079Z,6.90
2017-08-20T01:35:05.058Z,5.80
2017-08-20T01:36:05.034Z,6.60
2017-08-20T01:37:05.015Z,5.90
2017-08-20T01:38:04.992Z,6.80
2017-08-20T01:39:04.972Z,11.40
2017-08-20T01:40:04.949Z,4.70
2017-08-20T01:41:04.928Z,6.90
2017-08-20T01:42:04.908Z,8.00
2017-08-20T01:43:04.887Z,5.10
2017-08-20T01:44:04.865Z,3.60
2017-08-20T01:45:04.842Z,6.90
2017-08-20T01:46:04.821Z,5.50
2017-08-20T01:47:04.802Z,7.80
2017-08-20T01:48:04.780Z,4.40
2017-08-20T01:49:04.755Z,5.40
2017-08-20T01:50:04.737Z,4.50
2017-08-20T01:51:04.715Z,8.00
2017-08-20T01:52:04.693Z,6.80
2017-08-20T01:53:04.670Z,4.50
2017-08-20T01:54:04.649Z,4.10
2017-08-20T01:55:04.627Z,5.70
2017-08-20T01:56:04.610Z,5.70
2017-08-20T01:57:04.585Z,4.50
2017-08-20T01:58:04.565Z,3.80
2017-08-20T01:59:04.543Z,4.30
2017-08-20T02:00:04.521Z,5.40
2017-08-20T02:01:04.501Z,6.00
2017-08-20T02:02:04.483Z,5.50
2017-08-20T02:03:04.457Z,4.60
2017-08-20T02:04:04.436Z,5.10
2017-08-20T02:05:04.412Z,5.80
2017-08-20T02:06:04.391Z,5.10
2017-08-20T02:07:04.370Z,4.10
2017-08-20T02:08:04.349Z,3.90
2017-08-20T02:09:04.328Z,4.50
2017-08-20T02:10:04.306Z,6.10
2017-08-20T02:11:04.287Z,4.60
2017-08-20T02:12:04.263Z,4.10
2017-08-20T02:13:04.241Z,4.10
2017-08-20T02:14:04.222Z,4.30
2017-08-20T02:15:04.201Z,4.50
2017-08-20T02:16:04.179Z,7.00
2017-08-20T02:17:04.157Z,4.00
2017-08-20T02:18:04.136Z,5.00
2017-08-20T02:19:04.114Z,5.70
2017-08-20T02:20:04.093Z,5.50
2017-08-20T02:21:04.077Z,7.20
2017-08-20T02:22:04.052Z,7.20
2017-08-20T02:23:04.030Z,4.30
2017-08-20T02:24:04.007Z,4.90
2017-08-20T02:25:03.985Z,5.60
2017-08-20T02:26:03.964Z,5.50
2017-08-20T02:27:03.944Z,3.80
2017-08-20T02:28:03.922Z,4.60
2017-08-20T02:29:03.904Z,4.60
2017-08-20T02:30:03.879Z,5.60
2017-08-20T02:31:03.859Z,5.60
2017-08-20T02:32:03.834Z,4.60
2017-08-20T02:33:03.815Z,6.40
2017-08-20T02:34:03.794Z,8.10
2017-08-20T02:35:03.772Z,5.00
2017-08-20T02:36:03.751Z,6.70
2017-08-20T02:37:03.729Z,6.90
2017-08-20T02:38:03.709Z,4.00
2017-08-20T02:39:03.687Z,5.10
2017-08-20T02:40:03.664Z,4.40
2017-08-20T02:41:03.643Z,4.60
2017-08-20T02:42:03.622Z,6.40
2017-08-20T02:43:03.599Z,5.30
2017-08-20T02:44:03.580Z,6.60
2017-08-20T02:45:03.558Z,7.60
2017-08-20T02:46:03.537Z,3.70
2017-08-20T02:47:03.515Z,7.20
2017-08-20T02:48:03.494Z,10.20
2017-08-20T02:49:03.473Z,3.80
2017-08-20T02:50:03.452Z,5.30
2017-08-20T02:51:03.431Z,4.30
2017-08-20T02:52:03.408Z,5.20
2017-08-20T02:53:03.388Z,6.20
2017-08-20T02:54:03.366Z,10.70
2017-08-20T02:55:03.345Z,8.90
2017-08-20T02:56:03.324Z,6.60
2017-08-20T02:57:03.304Z,9.80
2017-08-20T02:58:03.283Z,7.40
2017-08-20T02:59:03.260Z,10.00
2017-08-20T03:00:03.238Z,10.70
2017-08-20T03:01:03.216Z,8.80
2017-08-20T03:02:03.195Z,7.90
2017-08-20T03:03:03.174Z,8.80
2017-08-20T03:04:03.151Z,9.20
2017-08-20T03:05:03.132Z,9.50
2017-08-20T03:06:03.110Z,10.10
2017-08-20T03:07:03.089Z,6.90
2017-08-20T03:08:03.065Z,6.80
2017-08-20T03:09:03.046Z,6.10
2017-08-20T03:10:03.024Z,7.20
2017-08-20T03:11:03.005Z,6.70
2017-08-20T03:12:02.981Z,6.50
2017-08-20T03:13:02.962Z,7.30
2017-08-20T03:14:02.939Z,6.30
2017-08-20T03:15:02.918Z,3.90
2017-08-20T03:16:02.895Z,9.90
2017-08-20T03:17:02.877Z,4.90
2017-08-20T03:18:02.856Z,7.50
2017-08-20T03:19:02.835Z,7.00
2017-08-20T03:20:02.813Z,7.60
2017-08-20T03:21:02.790Z,8.00
2017-08-20T03:22:02.771Z,6.10
2017-08-20T03:23:02.747Z,9.30
2017-08-20T03:24:02.727Z,7.40
2017-08-20T03:25:02.705Z,10.60
2017-08-20T03:26:02.691Z,8.60
2017-08-20T03:27:02.663Z,6.10
2017-08-20T03:28:02.639Z,7.80
2017-08-20T03:29:02.619Z,5.00
2017-08-20T03:30:02.598Z,7.20
2017-08-20T03:31:02.582Z,4.30
2017-08-20T03:32:02.554Z,7.40
2017-08-20T03:33:02.533Z,5.00
2017-08-20T03:34:02.513Z,4.70
2017-08-20T03:35:02.492Z,4.50
2017-08-20T03:36:02.469Z,7.20
2017-08-20T03:37:02.448Z,9.00
2017-08-20T03:38:02.428Z,7.70
2017-08-20T03:39:02.406Z,5.20
2017-08-20T03:40:02.383Z,8.40
2017-08-20T03:41:02.363Z,7.70
2017-08-20T03:42:02.341Z,8.40
2017-08-20T03:43:02.320Z,7.10
2017-08-20T03:44:02.298Z,7.80
2017-08-20T03:45:02.277Z,8.70
2017-08-20T03:46:02.256Z,6.20
2017-08-20T03:47:02.233Z,7.50
2017-08-20T03:48:02.214Z,5.90
2017-08-20T03:49:02.193Z,8.70
2017-08-20T03:50:02.170Z,5.00
2017-08-20T03:51:02.148Z,6.50
2017-08-20T03:52:02.129Z,6.00
2017-08-20T03:53:02.105Z,4.10
2017-08-20T03:54:02.085Z,7.10
2017-08-20T03:55:02.064Z,5.60
2017-08-20T03:56:02.041Z,6.90
2017-08-20T03:57:02.021Z,4.40
2017-08-20T03:58:01.999Z,6.90
2017-08-20T03:59:01.978Z,6.60
2017-08-20T04:00:01.956Z,7.00
2017-08-20T04:01:01.936Z,6.50
2017-08-20T04:02:01.914Z,5.50
2017-08-20T04:03:01.894Z,4.80
2017-08-20T04:04:01.870Z,6.80
2017-08-20T04:05:01.849Z,5.30
2017-08-20T04:06:01.830Z,4.10
2017-08-20T04:07:01.806Z,4.10
2017-08-20T04:08:01.784Z,6.40
2017-08-20T04:09:01.763Z,4.10
2017-08-20T04:10:01.743Z,7.50
2017-08-20T04:11:01.723Z,5.80
2017-08-20T04:12:01.701Z,3.90
2017-08-20T04:13:01.677Z,4.00
2017-08-20T04:14:01.656Z,4.70
2017-08-20T04:15:01.636Z,4.70
2017-08-20T04:16:01.614Z,6.00
2017-08-20T04:17:01.590Z,4.40
2017-08-20T04:18:01.571Z,4.60
2017-08-20T04:19:01.563Z,4.60
2017-08-20T04:20:01.527Z,3.60
2017-08-20T04:21:01.507Z,4.40
2017-08-20T04:22:01.486Z,5.60
2017-08-20T04:23:01.466Z,6.10
2017-08-20T04:24:01.441Z,5.30
2017-08-20T04:25:01.420Z,5.60
2017-08-20T04:26:01.400Z,3.40
2017-08-20T04:27:01.377Z,6.00
2017-08-20T04:28:01.356Z,2.90
2017-08-20T04:29:01.335Z,6.50
2017-08-20T04:30:01.314Z,5.60
2017-08-20T04:31:01.292Z,6.00
2017-08-20T04:32:01.270Z,4.30
2017-08-20T04:33:01.248Z,5.30
2017-08-20T04:34:01.227Z,4.40
2017-08-20T04:35:01.206Z,3.60
2017-08-20T04:36:01.183Z,4.20
2017-08-20T04:37:01.163Z,5.80
2017-08-20T04:38:01.143Z,3.40
2017-08-20T04:39:01.121Z,4.50
2017-08-20T04:40:01.100Z,7.10
2017-08-20T04:41:01.079Z,3.90
2017-08-20T04:42:01.056Z,6.50
2017-08-20T04:43:01.034Z,5.20
2017-08-20T04:44:01.017Z,3.80
2017-08-20T04:45:00.990Z,4.80
2017-08-20T04:46:00.972Z,2.60
2017-08-20T04:47:00.948Z,5.00
2017-08-20T04:48:00.930Z,5.50
2017-08-20T04:49:00.906Z,3.70
2017-08-20T04:50:00.887Z,4.60
2017-08-20T04:51:00.867Z,3.80
2017-08-20T04:52:00.843Z,4.20
2017-08-20T04:53:00.821Z,6.30
2017-08-20T04:54:00.801Z,4.60
2017-08-20T04:55:00.777Z,3.90
2017-08-20T04:56:00.757Z,3.80
2017-08-20T04:57:00.733Z,4.20
2017-08-20T04:58:00.714Z,4.30
2017-08-20T04:59:00.692Z,6.30
2017-08-20T05:00:00.671Z,4.10
2017-08-20T05:01:00.648Z,3.60
2017-08-20T05:02:00.628Z,5.10
2017-08-20T05:03:00.608Z,2.60
2017-08-20T05:04:00.585Z,4.10
2017-08-20T05:05:00.562Z,3.80
2017-08-20T05:06:00.541Z,3.60
2017-08-20T05:07:00.522Z,3.70
2017-08-20T05:08:00.499Z,4.40
2017-08-20T05:09:00.478Z,5.70
2017-08-20T05:10:00.456Z,4.20
2017-08-20T05:11:00.434Z,4.80
2017-08-20T05:12:00.414Z,3.20
2017-08-20T05:13:00.392Z,4.20
2017-08-20T05:14:00.370Z,3.90
2017-08-20T05:15:00.348Z,3.60
2017-08-20T05:16:00.327Z,3.30
2017-08-20T05:17:00.305Z,4.00
2017-08-20T05:18:00.286Z,3.20
2017-08-20T05:19:00.263Z,3.10
2017-08-20T05:20:00.241Z,4.90
2017-08-20T05:21:00.222Z,5.00
2017-08-20T05:22:00.199Z,3.80
2017-08-20T05:23:00.177Z,3.70
2017-08-20T05:24:00.156Z,4.30
2017-08-20T05:25:00.134Z,4.30
2017-08-20T05:26:00.116Z,4.40
2017-08-20T05:27:00.093Z,3.60
2017-08-20T05:28:00.072Z,4.70
2017-08-20T05:29:00.050Z,5.00
2017-08-20T05:30:00.029Z,4.90
2017-08-20T05:31:00.006Z,4.00
2017-08-20T05:31:59.984Z,5.80
2017-08-20T05:32:59.962Z,3.10
2017-08-20T05:33:59.941Z,4.10
2017-08-20T05:34:59.920Z,4.40
2017-08-20T05:35:59.898Z,4.60
2017-08-20T05:36:59.877Z,4.40
2017-08-20T05:37:59.857Z,5.50
2017-08-20T05:38:59.836Z,6.30
2017-08-20T05:39:59.813Z,4.90
2017-08-20T05:40:59.793Z,6.40
2017-08-20T05:41:59.770Z,5.60
2017-08-20T05:42:59.750Z,4.40
2017-08-20T05:43:59.728Z,5.40
2017-08-20T05:44:59.707Z,4.40
2017-08-20T05:45:59.685Z,7.10
2017-08-20T05:46:59.667Z,9.10
2017-08-20T05:47:59.642Z,11.70
2017-08-20T05:48:59.623Z,12.30
2017-08-20T05:49:59.603Z,12.10
2017-08-20T05:50:59.579Z,15.50
2017-08-20T05:51:59.558Z,21.60
2017-08-20T05:52:59.764Z,28.80
2017-08-20T05:53:59.515Z,28.80
2017-08-20T05:54:59.494Z,25.20
2017-08-20T05:55:59.471Z,29.90
2017-08-20T05:56:59.452Z,34.60
2017-08-20T05:57:59.672Z,39.00
2017-08-20T05:58:59.412Z,37.90
2017-08-20T05:59:59.387Z,39.00
2017-08-20T06:00:59.366Z,37.50
2017-08-20T06:01:59.348Z,38.90
2017-08-20T06:02:59.324Z,34.20
2017-08-20T06:03:59.305Z,42.60
2017-08-20T06:04:59.282Z,53.00
2017-08-20T06:05:59.265Z,59.30
2017-08-20T06:06:59.242Z,60.30
2017-08-20T06:07:59.220Z,55.20
2017-08-20T06:08:59.197Z,53.30
2017-08-20T06:09:59.179Z,58.20
2017-08-20T06:10:59.156Z,63.40
2017-08-20T06:11:59.133Z,68.40
2017-08-20T06:12:59.113Z,59.40
2017-08-20T06:13:59.093Z,57.90
2017-08-20T06:14:59.071Z,54.60
2017-08-20T06:15:59.052Z,55.20
2017-08-20T06:16:59.029Z,50.20
2017-08-20T06:17:59.008Z,49.50
2017-08-20T06:18:58.986Z,46.50
2017-08-20T06:19:58.964Z,52.40
2017-08-20T06:20:58.944Z,54.10
2017-08-20T06:21:58.922Z,69.00
2017-08-20T06:22:58.903Z,87.90
2017-08-20T06:23:58.879Z,94.50
2017-08-20T06:24:58.858Z,105.70
2017-08-20T06:25:58.837Z,98.30
2017-08-20T06:26:58.816Z,106.20
2017-08-20T06:27:58.796Z,108.70
2017-08-20T06:28:58.774Z,118.70
2017-08-20T06:29:58.754Z,115.90
2017-08-20T06:30:58.734Z,109.30
2017-08-20T06:31:58.713Z,97.30
2017-08-20T06:32:58.691Z,81.20
2017-08-20T06:33:58.669Z,83.00
2017-08-20T06:34:58.648Z,95.30
2017-08-20T06:35:58.626Z,98.90
2017-08-20T06:36:58.605Z,94.90
2017-08-20T06:37:58.583Z,71.40
2017-08-20T06:38:58.564Z,67.90
2017-08-20T06:39:58.542Z,79.00
2017-08-20T06:40:58.521Z,79.10
2017-08-20T06:41:58.501Z,70.10
2017-08-20T06:42:58.476Z,66.70
2017-08-20T06:43:58.457Z,65.90
2017-08-20T06:44:58.435Z,66.60
2017-08-20T06:45:58.420Z,58.90
2017-08-20T06:46:58.395Z,50.80
2017-08-20T06:47:58.374Z,50.20
2017-08-20T06:48:58.350Z,47.70
2017-08-20T06:49:58.330Z,44.70
2017-08-20T06:50:58.315Z,52.90
2017-08-20T06:51:58.287Z,84.00
2017-08-20T06:52:58.268Z,101.00
2017-08-20T06:53:58.246Z,127.20
2017-08-20T06:54:58.224Z,147.50
2017-08-20T06:55:58.204Z,146.70
2017-08-20T06:56:58.181Z,174.80
2017-08-20T06:57:58.159Z,166.40
2017-08-20T06:58:58.139Z,148.00
2017-08-20T06:59:58.116Z,181.10
2017-08-20T07:00:58.098Z,192.70
2017-08-20T07:01:58.326Z,194.80
2017-08-20T07:02:58.056Z,196.30
2017-08-20T07:03:58.030Z,191.80
2017-08-20T07:04:58.012Z,175.60
2017-08-20T07:05:57.989Z,175.40
2017-08-20T07:06:57.970Z,178.10
2017-08-20T07:07:57.947Z,170.70
2017-08-20T07:08:57.927Z,171.60
2017-08-20T07:09:57.908Z,146.70
2017-08-20T07:10:57.884Z,147.10
2017-08-20T07:11:57.863Z,167.10
2017-08-20T07:12:57.844Z,157.70
2017-08-20T07:13:57.821Z,155.80
2017-08-20T07:14:57.800Z,152.80
2017-08-20T07:15:57.776Z,165.10
2017-08-20T07:16:57.757Z,178.50
2017-08-20T07:17:57.738Z,176.70
2017-08-20T07:18:57.717Z,243.40
2017-08-20T07:19:57.694Z,218.90
2017-08-20T07:20:57.672Z,247.70
2017-08-20T07:21:57.652Z,284.20
2017-08-20T07:22:57.638Z,284.80
2017-08-20T07:23:57.610Z,303.70
2017-08-20T07:24:57.591Z,293.10
2017-08-20T07:25:57.568Z,290.40
2017-08-20T07:26:57.546Z,306.10
2017-08-20T07:27:57.526Z,304.10
2017-08-20T07:28:57.503Z,320.30
2017-08-20T07:29:57.488Z,303.20
2017-08-20T07:30:57.463Z,315.30
2017-08-20T07:31:57.441Z,337.80
2017-08-20T07:32:57.420Z,335.10
2017-08-20T07:33:57.420Z,330.00
2017-08-20T07:34:57.379Z,356.40
2017-08-20T07:35:57.358Z,345.80
2017-08-20T07:36:57.337Z,337.50
2017-08-20T07:37:57.316Z,354.00
2017-08-20T07:38:57.295Z,334.20
2017-08-20T07:39:57.274Z,361.90
2017-08-20T07:40:57.254Z,355.40
2017-08-20T07:41:57.234Z,362.60
2017-08-20T07:42:57.214Z,358.60
2017-08-20T07:43:57.195Z,336.40
2017-08-20T07:44:57.169Z,365.50
2017-08-20T07:45:57.151Z,349.00
2017-08-20T07:46:57.129Z,351.20
2017-08-20T07:47:57.106Z,332.40
2017-08-20T07:48:57.087Z,355.00
2017-08-20T07:49:57.065Z,353.10
2017-08-20T07:50:57.045Z,334.50
2017-08-20T07:51:57.024Z,343.80
2017-08-20T07:52:57.003Z,343.20
2017-08-20T07:53:56.987Z,349.40
2017-08-20T07:54:56.959Z,327.90
2017-08-20T07:55:56.941Z,328.40
2017-08-20T07:56:56.917Z,320.30
2017-08-20T07:57:56.899Z,331.60
2017-08-20T07:58:56.876Z,318.40
2017-08-20T07:59:56.857Z,320.80
2017-08-20T08:00:56.833Z,318.80
2017-08-20T08:01:56.815Z,303.80
2017-08-20T08:02:56.793Z,306.80
2017-08-20T08:03:56.773Z,332.20
2017-08-20T08:04:56.751Z,316.50
2017-08-20T08:05:56.729Z,302.00
2017-08-20T08:06:56.711Z,310.70
2017-08-20T08:07:56.691Z,321.20
2017-08-20T08:08:56.674Z,310.50
2017-08-20T08:09:56.650Z,302.10
2017-08-20T08:10:56.625Z,292.50
2017-08-20T08:11:56.607Z,304.00
2017-08-20T08:12:56.584Z,304.70
2017-08-20T08:13:56.565Z,286.90
2017-08-20T08:14:56.542Z,293.10
2017-08-20T08:15:56.520Z,296.50
2017-08-20T08:16:56.500Z,290.00
2017-08-20T08:17:56.478Z,280.20
2017-08-20T08:18:56.481Z,290.80
2017-08-20T08:19:56.439Z,288.80
2017-08-20T08:20:56.418Z,269.30
2017-08-20T08:21:56.397Z,283.10
2017-08-20T08:22:56.375Z,275.70
2017-08-20T08:23:56.354Z,268.40
2017-08-20T08:24:56.333Z,282.40
2017-08-20T08:25:56.313Z,279.60
2017-08-20T08:26:56.293Z,267.80
2017-08-20T08:27:56.272Z,270.80
2017-08-20T08:28:56.251Z,258.60
2017-08-20T08:29:56.229Z,265.40
2017-08-20T08:30:56.209Z,271.30
2017-08-20T08:31:56.187Z,259.90
2017-08-20T08:32:56.172Z,259.80
2017-08-20T08:33:56.145Z,263.00
2017-08-20T08:34:56.124Z,250.10
2017-08-20T08:35:56.106Z,256.90
2017-08-20T08:36:56.085Z,259.90
2017-08-20T08:37:56.063Z,256.40
2017-08-20T08:38:56.043Z,253.20
2017-08-20T08:39:56.021Z,238.40
2017-08-20T08:40:56.000Z,241.70
2017-08-20T08:41:56.008Z,241.60
2017-08-20T08:42:55.958Z,245.40
2017-08-20T08:43:55.938Z,232.60
2017-08-20T08:44:55.916Z,239.30
2017-08-20T08:45:55.900Z,239.40
2017-08-20T08:46:55.875Z,240.90
2017-08-20T08:47:55.853Z,235.80
2017-08-20T08:48:55.833Z,231.90
2017-08-20T08:49:55.814Z,226.50
2017-08-20T08:50:55.791Z,231.10
2017-08-20T08:51:55.770Z,226.40
2017-08-20T08:52:55.750Z,238.00
2017-08-20T08:53:55.729Z,227.00
2017-08-20T08:54:55.711Z,225.40
2017-08-20T08:55:55.687Z,227.90
2017-08-20T08:56:55.666Z,224.40
2017-08-20T08:57:55.644Z,214.80
2017-08-20T08:58:55.624Z,213.50
2017-08-20T08:59:55.604Z,208.90
2017-08-20T09:00:55.583Z,210.50
2017-08-20T09:01:55.561Z,214.60
2017-08-20T09:02:55.542Z,210.90
2017-08-20T09:03:55.520Z,217.60
2017-08-20T09:04:55.500Z,210.00
2017-08-20T09:05:55.479Z,211.00
2017-08-20T09:06:55.459Z,206.20
2017-08-20T09:07:55.439Z,216.10
2017-08-20T09:08:55.416Z,214.30
2017-08-20T09:09:55.399Z,214.50
2017-08-20T09:10:55.375Z,200.20
2017-08-20T09:11:55.359Z,194.20
2017-08-20T09:12:55.337Z,200.60
2017-08-20T09:13:55.314Z,201.10
2017-08-20T09:14:55.293Z,197.40
2017-08-20T09:15:55.272Z,200.00
2017-08-20T09:16:55.250Z,207.40
2017-08-20T09:17:55.231Z,187.60
2017-08-20T09:18:55.208Z,195.90
2017-08-20T09:19:55.187Z,189.80
2017-08-20T09:20:55.173Z,187.80
2017-08-20T09:21:55.146Z,195.90
2017-08-20T09:22:55.131Z,197.70
2017-08-20T09:23:55.107Z,186.90
2017-08-20T09:24:55.086Z,183.00
2017-08-20T09:25:55.063Z,181.60
2017-08-20T09:26:55.043Z,191.00
2017-08-20T09:27:55.021Z,180.30
2017-08-20T09:28:55.003Z,182.40
2017-08-20T09:29:54.980Z,183.80
2017-08-20T09:30:54.962Z,177.20
2017-08-20T09:31:54.939Z,177.30
2017-08-20T09:32:54.920Z,172.00
2017-08-20T09:33:54.898Z,171.50
2017-08-20T09:34:54.877Z,176.60
2017-08-20T09:35:54.857Z,178.40
2017-08-20T09:36:54.834Z,182.80
2017-08-20T09:37:54.813Z,168.70
2017-08-20T09:38:54.793Z,176.70
2017-08-20T09:39:54.773Z,178.20
2017-08-20T09:40:54.754Z,163.40
2017-08-20T09:41:54.733Z,166.30
2017-08-20T09:42:54.710Z,164.50
2017-08-20T09:43:54.689Z,173.50
2017-08-20T09:44:54.670Z,162.50
2017-08-20T09:45:54.649Z,164.10
2017-08-20T09:46:54.628Z,158.80
2017-08-20T09:47:54.606Z,157.90
2017-08-20T09:48:54.585Z,157.60
2017-08-20T09:49:54.565Z,167.00
2017-08-20T09:50:54.545Z,167.00
2017-08-20T09:51:54.524Z,168.20
2017-08-20T09:52:54.502Z,159.00
2017-08-20T09:53:54.483Z,164.80
2017-08-20T09:54:54.462Z,153.10
2017-08-20T09:55:54.440Z,161.30
2017-08-20T09:56:54.420Z,159.10
2017-08-20T09:57:54.400Z,155.60
2017-08-20T09:58:54.379Z,155.00
2017-08-20T09:59:54.358Z,152.70
2017-08-20T10:00:54.336Z,154.50
2017-08-20T10:01:54.317Z,147.00
2017-08-20T10:02:54.297Z,150.40
2017-08-20T10:03:54.274Z,149.80
2017-08-20T10:04:54.254Z,146.30
2017-08-20T10:05:54.233Z,153.60
2017-08-20T10:06:54.212Z,146.60
2017-08-20T10:07:54.191Z,151.30
2017-08-20T10:08:54.171Z,147.90
2017-08-20T10:09:54.148Z,145.20
2017-08-20T10:10:54.130Z,143.90
2017-08-20T10:11:54.108Z,142.90
2017-08-20T10:12:54.087Z,137.00
2017-08-20T10:13:54.072Z,147.90
2017-08-20T10:14:54.048Z,138.90
2017-08-20T10:15:54.030Z,142.50
2017-08-20T10:16:54.005Z,140.40
2017-08-20T10:17:53.983Z,133.40
2017-08-20T10:18:53.965Z,138.70
2017-08-20T10:19:53.944Z,142.70
2017-08-20T10:20:53.923Z,136.30
2017-08-20T10:21:53.906Z,138.60
2017-08-20T10:22:53.882Z,138.80
2017-08-20T10:23:53.858Z,134.10
2017-08-20T10:24:53.843Z,137.90
2017-08-20T10:25:53.822Z,130.30
2017-08-20T10:26:53.798Z,127.50
2017-08-20T10:27:53.775Z,127.20
2017-08-20T10:28:53.759Z,125.30
2017-08-20T10:29:53.736Z,129.00
2017-08-20T10:30:53.719Z,131.00
2017-08-20T10:31:53.692Z,137.00
2017-08-20T10:32:53.674Z,121.80
2017-08-20T10:33:53.655Z,130.40
2017-08-20T10:34:53.631Z,125.90
2017-08-20T10:35:53.612Z,131.40
2017-08-20T10:36:53.588Z,121.70
2017-08-20T10:37:53.570Z,124.50
2017-08-20T10:38:53.548Z,127.60
2017-08-20T10:39:53.529Z,124.60
2017-08-20T10:40:53.511Z,127.20
2017-08-20T10:41:53.488Z,127.00
2017-08-20T10:42:53.470Z,122.30
2017-08-20T10:43:53.447Z,121.40
2017-08-20T10:44:53.428Z,121.60
2017-08-20T10:45:53.404Z,116.90
2017-08-20T10:46:53.390Z,115.50
2017-08-20T10:47:53.379Z,118.00
2017-08-20T10:48:53.345Z,116.60
2017-08-20T10:49:53.319Z,118.90
2017-08-20T10:50:53.304Z,125.90
2017-08-20T10:51:53.279Z,116.60
2017-08-20T10:52:53.266Z,102.70
2017-08-20T10:53:53.238Z,115.70
2017-08-20T10:54:53.224Z,109.90
2017-08-20T10:55:53.195Z,119.60
2017-08-20T10:56:53.180Z,111.20
2017-08-20T10:57:53.155Z,113.60
2017-08-20T10:58:53.134Z,111.20
2017-08-20T10:59:53.113Z,109.90
2017-08-20T11:00:53.098Z,119.50
2017-08-20T11:01:53.079Z,115.40
2017-08-20T11:02:53.057Z,114.00
2017-08-20T11:03:53.030Z,111.70
2017-08-20T11:04:53.015Z,108.80
2017-08-20T11:05:52.992Z,114.10
2017-08-20T11:06:52.971Z,110.60
2017-08-20T11:07:52.950Z,109.10
2017-08-20T11:08:52.927Z,108.80
2017-08-20T11:09:52.909Z,107.60
2017-08-20T11:10:52.887Z,118.70
2017-08-20T11:11:52.869Z,104.10
2017-08-20T11:12:52.849Z,104.70
2017-08-20T11:13:52.825Z,106.80
2017-08-20T11:14:52.814Z,103.90
2017-08-20T11:15:52.783Z,105.90
2017-08-20T11:16:52.766Z,111.60
2017-08-20T11:17:52.744Z,106.70
2017-08-20T11:18:52.726Z,100.90
2017-08-20T11:19:52.699Z,101.40
2017-08-20T11:20:52.683Z,100.50
2017-08-20T11:21:52.661Z,100.40
2017-08-20T11:22:52.639Z,109.20
2017-08-20T11:23:52.619Z,101.30
2017-08-20T11:24:52.599Z,101.00
2017-08-20T11:25:52.581Z,104.90
2017-08-20T11:26:52.558Z,102.10
2017-08-20T11:27:52.538Z,106.70
2017-08-20T11:28:52.518Z,103.90
2017-08-20T11:29:52.496Z,106.50
2017-08-20T11:30:52.472Z,98.10
2017-08-20T11:31:52.456Z,96.70
2017-08-20T11:32:52.435Z,97.70
2017-08-20T11:33:52.410Z,94.20
2017-08-20T11:34:52.394Z,98.60
2017-08-20T11:35:52.373Z,97.50
2017-08-20T11:36:52.355Z,99.50
2017-08-20T11:37:52.333Z,94.20
2017-08-20T11:38:52.312Z,101.60
2017-08-20T11:39:52.287Z,94.90
2017-08-20T11:40:52.266Z,97.30
2017-08-20T11:41:52.250Z,99.30
2017-08-20T11:42:52.226Z,95.20
2017-08-20T11:43:52.206Z,92.10
2017-08-20T11:44:52.182Z,91.90
2017-08-20T11:45:52.163Z,87.30
2017-08-20T11:46:52.147Z,85.70
2017-08-20T11:47:52.130Z,88.90
2017-08-20T11:48:52.101Z,88.10
2017-08-20T11:49:52.085Z,82.10
2017-08-20T11:50:52.064Z,83.60
2017-08-20T11:51:52.043Z,83.00
2017-08-20T11:52:52.022Z,87.00
2017-08-20T11:53:52.001Z,83.00
2017-08-20T11:54:51.981Z,89.00
2017-08-20T11:55:51.958Z,84.70
2017-08-20T11:56:51.939Z,81.20
2017-08-20T11:57:51.919Z,77.70
2017-08-20T11:58:51.902Z,77.30
2017-08-20T11:59:51.879Z,78.50
2017-08-20T12:00:51.859Z,86.80
2017-08-20T12:01:51.833Z,74.00
2017-08-20T12:02:51.814Z,77.50
2017-08-20T12:03:51.795Z,69.00
2017-08-20T12:04:51.777Z,71.90
2017-08-20T12:05:51.755Z,75.40
2017-08-20T12:06:51.734Z,77.40
2017-08-20T12:07:51.709Z,70.10
2017-08-20T12:08:51.693Z,75.30
2017-08-20T12:09:51.669Z,72.00
2017-08-20T12:10:51.668Z,74.40
2017-08-20T12:11:51.633Z,75.80
2017-08-20T12:12:51.611Z,70.40
2017-08-20T12:13:51.592Z,64.80
2017-08-20T12:14:51.571Z,71.10
2017-08-20T12:15:51.546Z,69.00
2017-08-20T12:16:51.532Z,68.00
2017-08-20T12:17:51.507Z,68.10
2017-08-20T12:18:51.490Z,63.20
2017-08-20T12:19:51.470Z,67.00
2017-08-20T12:20:51.449Z,71.10
2017-08-20T12:21:51.427Z,67.60
2017-08-20T12:22:51.408Z,71.70
2017-08-20T12:23:51.385Z,67.30
2017-08-20T12:24:51.364Z,65.50
2017-08-20T12:25:51.346Z,65.30
2017-08-20T12:26:51.324Z,65.20
2017-08-20T12:27:51.305Z,68.50
2017-08-20T12:28:51.280Z,65.50
2017-08-20T12:29:51.260Z,64.00
2017-08-20T12:30:51.242Z,64.00
2017-08-20T12:31:51.219Z,59.90
2017-08-20T12:32:51.198Z,63.40
2017-08-20T12:33:51.180Z,63.30
2017-08-20T12:34:51.157Z,63.90
2017-08-20T12:35:51.139Z,59.10
2017-08-20T12:36:51.119Z,63.50
2017-08-20T12:37:51.101Z,62.60
2017-08-20T12:38:51.081Z,58.50
2017-08-20T12:39:51.055Z,57.70
2017-08-20T12:40:51.037Z,57.50
2017-08-20T12:41:51.019Z,56.00
2017-08-20T12:42:50.996Z,59.70
2017-08-20T12:43:50.977Z,60.60
2017-08-20T12:44:50.957Z,58.10
2017-08-20T12:45:50.937Z,55.70
2017-08-20T12:46:50.912Z,53.40
2017-08-20T12:47:50.895Z,56.80
2017-08-20T12:48:50.871Z,54.80
2017-08-20T12:49:50.852Z,56.00
2017-08-20T12:50:50.835Z,56.30
2017-08-20T12:51:50.815Z,51.90
2017-08-20T12:52:50.793Z,52.60
2017-08-20T12:53:50.768Z,56.30